logo



Minimumtemperatur heute 11.9     Maximumtemperatur heute 19.1
Datum Zeit
MEZ
Lufttemperatur
C
Windrichtung
Grad
Wind Mittel
Km/h
Wind Min
Km/h
Wind Max
Km/h
rel. Feuchte
%
2016-08-31 08:40:00 19.1 88 1.8 3.4 11.1 78
2016-08-31 08:35:00 19.0 102 1.6 2.7 8.5 79
2016-08-31 08:30:00 18.6 100 1.8 4.6 8.5 81
2016-08-31 08:25:00 18.3 85 1.9 5.4 9.0 82
2016-08-31 08:20:00 17.8 65 1.5 3.5 6.6 88
2016-08-31 08:15:00 17.0 58 1.0 2.3 4.6 95
2016-08-31 08:10:00 16.5 81 0.9 1.7 4.4 95
2016-08-31 08:05:00 16.1 105 1.1 1.3 6.1 96
2016-08-31 08:00:00 15.7 73 1.1 2.7 5.3 96
2016-08-31 07:55:00 15.5 97 1.2 2.1 5.8 96
2016-08-31 07:50:00 15.2 63 0.7 1.0 3.8 96
2016-08-31 07:45:00 14.9 87 0.6 1.3 3.5 96
2016-08-31 07:40:00 14.6 68 0.3 0.3 2.2 96
2016-08-31 07:35:00 14.5 74 0.4 0.0 2.5 96
2016-08-31 07:30:00 14.4 103 0.6 0.8 3.3 96
2016-08-31 07:25:00 14.2 81 0.7 1.3 3.5 96
2016-08-31 07:20:00 14.1 63 0.6 1.5 3.2 96
2016-08-31 07:15:00 14.1 100 0.4 0.6 2.8 96
2016-08-31 07:10:00 13.9 68 0.2 0.0 2.4 96
2016-08-31 07:05:00 14.0 98 0.0 0.0 0.0 96
2016-08-31 07:00:00 13.8 48 0.0 0.0 0.0 96
2016-08-31 06:55:00 13.6 28 0.0 0.0 0.0 96
2016-08-31 06:50:00 13.6 307 0.1 0.0 1.0 96
2016-08-31 06:45:00 13.5 296 0.2 0.0 1.6 96
2016-08-31 06:40:00 13.3 285 0.6 1.3 2.9 95
2016-08-31 06:35:00 13.3 277 0.8 2.0 4.0 95
2016-08-31 06:30:00 13.3 268 1.0 2.1 5.0 95
2016-08-31 06:25:00 13.4 253 0.7 1.6 4.0 96
2016-08-31 06:20:00 13.2 241 1.0 2.1 5.2 96
2016-08-31 06:15:00 13.1 263 1.1 2.0 5.1 95
2016-08-31 06:10:00 12.8 266 1.3 2.8 5.4 95
2016-08-31 06:05:00 12.6 283 1.0 1.6 5.0 95
2016-08-31 06:00:00 12.6 282 0.8 1.8 4.2 95
2016-08-31 05:55:00 12.6 266 1.2 2.5 6.1 95
2016-08-31 05:50:00 12.2 245 1.7 2.6 8.6 95
2016-08-31 05:45:00 12.3 272 0.5 1.2 2.5 95
2016-08-31 05:40:00 12.0 241 0.3 0.6 1.7 95
2016-08-31 05:35:00 11.9 277 0.1 0.0 1.3 95
2016-08-31 05:30:00 12.3 53 0.4 0.3 3.0 95
2016-08-31 05:25:00 12.3 82 0.9 1.3 5.6 95
2016-08-31 05:20:00 12.4 111 0.8 0.9 4.8 95
2016-08-31 05:15:00 12.9 122 0.5 0.0 3.3 95
2016-08-31 05:10:00 13.0 148 0.5 0.0 4.1 95
2016-08-31 05:05:00 13.0 179 0.4 0.4 2.6 95
2016-08-31 05:00:00 12.9 229 0.6 1.1 5.0 95
2016-08-31 04:55:00 12.8 232 0.5 0.7 4.2 95
2016-08-31 04:50:00 12.8 260 0.4 0.7 2.3 95
2016-08-31 04:45:00 12.7 233 0.1 0.0 1.7 95
2016-08-31 04:40:00 12.8 81 0.5 0.7 3.0 95
2016-08-31 04:35:00 13.0 87 1.0 1.5 5.3 95
2016-08-31 04:30:00 12.9 102 0.7 1.7 3.8 95
2016-08-31 04:25:00 13.0 102 0.9 2.1 5.2 95
2016-08-31 04:20:00 13.0 100 0.5 0.0 2.5 95
2016-08-31 04:15:00 13.1 111 0.0 0.0 0.0 95
2016-08-31 04:10:00 13.3 120 0.0 0.0 0.0 95
2016-08-31 04:05:00 13.3 120 0.0 0.0 0.0 95
2016-08-31 04:00:00 13.3 119 0.0 0.0 0.0 95
2016-08-31 03:55:00 13.2 119 0.0 0.0 0.0 95
2016-08-31 03:50:00 13.2 199 0.0 0.0 1.1 95
2016-08-31 03:45:00 13.0 215 0.0 0.0 1.6 95
2016-08-31 03:40:00 13.0 202 0.0 0.0 0.7 95
2016-08-31 03:35:00 12.9 195 0.1 0.0 1.5 95
2016-08-31 03:30:00 12.6 261 0.1 0.0 1.9 95
2016-08-31 03:25:00 12.6 95 0.5 0.2 3.2 95
2016-08-31 03:20:00 12.5 84 0.3 0.0 4.2 94
2016-08-31 03:15:00 12.6 98 0.0 0.0 0.0 94
2016-08-31 03:10:00 12.8 142 0.0 0.0 0.0 94
2016-08-31 03:05:00 13.0 142 0.0 0.0 0.0 94
2016-08-31 03:00:00 13.1 129 0.3 0.0 2.2 94
2016-08-31 02:55:00 13.1 114 0.1 0.0 1.8 94
2016-08-31 02:50:00 13.4 228 0.1 0.0 0.4 95
2016-08-31 02:45:00 13.5 229 0.1 0.1 1.0 94
2016-08-31 02:40:00 13.7 229 0.2 0.4 1.5 95
2016-08-31 02:35:00 13.6 256 0.2 0.2 1.1 95
2016-08-31 02:30:00 13.5 332 0.3 0.2 2.3 94
2016-08-31 02:25:00 13.5 282 0.5 0.5 5.1 94
2016-08-31 02:20:00 13.7 235 0.9 2.0 4.8 94
2016-08-31 02:15:00 14.0 272 0.8 1.9 5.1 94
2016-08-31 02:10:00 14.1 212 0.7 1.7 3.5 95
2016-08-31 02:05:00 14.1 223 0.2 0.5 1.7 95
2016-08-31 02:00:00 13.8 227 0.2 0.3 1.2 94
2016-08-31 01:55:00 13.7 272 0.2 0.2 1.3 94
2016-08-31 01:50:00 14.0 219 0.2 0.0 1.1 94
2016-08-31 01:45:00 13.9 199 0.0 0.0 0.0 94
2016-08-31 01:40:00 14.0 79 0.0 0.0 0.0 94
2016-08-31 01:35:00 14.1 92 0.0 0.0 0.5 94
2016-08-31 01:30:00 14.2 92 0.4 0.9 2.2 94
2016-08-31 01:25:00 14.2 84 0.0 0.0 2.1 94
2016-08-31 01:20:00 14.4 217 0.1 0.0 1.2 94
2016-08-31 01:15:00 14.4 236 0.1 0.0 0.9 94
2016-08-31 01:10:00 14.2 122 0.0 0.0 0.0 94
2016-08-31 01:05:00 14.4 104 0.0 0.0 0.0 94
2016-08-31 01:00:00 14.5 104 0.0 0.0 0.1 94
2016-08-31 00:55:00 14.4 88 0.1 0.0 0.8 94
2016-08-31 00:50:00 14.5 271 0.0 0.0 0.4 94
2016-08-31 00:45:00 14.5 251 0.5 0.0 4.9 94
2016-08-31 00:40:00 14.4 241 1.0 2.2 4.8 94
2016-08-31 00:35:00 14.2 293 0.6 0.9 3.8 94
2016-08-31 00:30:00 14.1 216 0.7 1.1 4.2 94
2016-08-31 00:25:00 14.0 244 0.6 0.0 3.8 94
2016-08-31 00:20:00 13.8 263 0.0 0.0 0.0 93
2016-08-31 00:15:00 13.9 101 0.0 0.0 0.0 93
2016-08-31 00:10:00 14.0 101 0.0 0.0 0.0 93
2016-08-31 00:05:00 14.2 197 0.0 0.0 0.0 93
2016-08-31 00:00:00 14.7 216 0.0 0.0 0.0 94
www.zamg.ac.at

klagenfurt@zamg.ac.at